createdAt,value
2019-05-23T00:03:15.113Z,97850.28
2019-05-23T00:08:19.292Z,97852.47
2019-05-23T00:13:25.271Z,97851.27
2019-05-23T00:18:30.585Z,97846.41
2019-05-23T00:23:35.008Z,97842.78
2019-05-23T00:28:39.183Z,97847.19
2019-05-23T00:33:44.437Z,97846.55
2019-05-23T00:38:49.446Z,97843.55
2019-05-23T00:43:53.146Z,97846.06
2019-05-23T00:48:56.465Z,97845.11
2019-05-23T00:54:00.096Z,97848.36
2019-05-23T00:59:03.529Z,97854.18
2019-05-23T01:04:06.921Z,97854.23
2019-05-23T01:09:10.496Z,97859.27
2019-05-23T01:14:14.472Z,97860.88
2019-05-23T01:19:19.396Z,97868.23
2019-05-23T01:24:24.831Z,97862.64
2019-05-23T01:29:37.367Z,97864.72
2019-05-23T01:34:35.726Z,97865.51
2019-05-23T01:39:39.232Z,97871.99
2019-05-23T01:44:42.873Z,97865.09
2019-05-23T01:49:46.651Z,97868.23
2019-05-23T01:54:50.247Z,97869.58
2019-05-23T02:00:09.146Z,97873.18
2019-05-23T02:05:00.777Z,97877.17
2019-05-23T02:10:09.790Z,97883.16
2019-05-23T02:15:14.033Z,97880.84
2019-05-23T02:20:19.730Z,97870.16
2019-05-23T02:25:24.890Z,97868.77
2019-05-23T02:30:34.732Z,97871.09
2019-05-23T02:35:34.064Z,97870.30
2019-05-23T02:40:45.765Z,97876.20
2019-05-23T02:45:51.019Z,97882.88
2019-05-23T02:51:07.920Z,97880.51
2019-05-23T02:56:14.440Z,97881.38
2019-05-23T03:01:31.855Z,97885.41
2019-05-23T03:06:37.483Z,97884.00
2019-05-23T03:11:44.353Z,97885.67
2019-05-23T03:16:51.111Z,97877.55
2019-05-23T03:22:31.720Z,97873.19
2019-05-23T03:27:39.864Z,97877.49
2019-05-23T03:32:44.917Z,97875.42
2019-05-23T03:37:51.599Z,97880.09
2019-05-23T03:42:55.181Z,97877.16
2019-05-23T03:48:00.182Z,97879.50
2019-05-23T03:53:05.226Z,97877.20
2019-05-23T03:58:09.983Z,97877.20
2019-05-23T04:03:15.079Z,97883.28
2019-05-23T04:08:18.681Z,97883.53
2019-05-23T04:13:22.069Z,97885.33
2019-05-23T04:18:26.039Z,97880.95
2019-05-23T04:23:29.567Z,97884.16
2019-05-23T04:28:32.907Z,97888.25
2019-05-23T04:33:36.500Z,97887.16
2019-05-23T04:38:40.842Z,97883.66
2019-05-23T04:43:44.225Z,97891.73
2019-05-23T04:48:47.850Z,97889.02
2019-05-23T04:53:51.491Z,97895.02
2019-05-23T04:58:54.880Z,97898.16
2019-05-23T05:03:58.506Z,97902.34
2019-05-23T05:09:02.457Z,97899.31
2019-05-23T05:14:06.234Z,97905.48
2019-05-23T05:19:10.117Z,97906.63
2019-05-23T05:24:13.472Z,97913.43
2019-05-23T05:29:16.857Z,97908.67
2019-05-23T05:34:20.217Z,97914.91
2019-05-23T05:39:24.673Z,97919.44
2019-05-23T05:44:28.464Z,97917.38
2019-05-23T05:49:31.853Z,97921.92
2019-05-23T05:54:36.627Z,97920.40
2019-05-23T05:59:39.984Z,97923.30
2019-05-23T06:04:43.655Z,97920.03
2019-05-23T06:09:48.716Z,97928.48
2019-05-23T06:14:52.281Z,97932.55
2019-05-23T06:19:55.672Z,97933.98
2019-05-23T06:24:59.198Z,97934.83
2019-05-23T06:30:04.035Z,97929.97
2019-05-23T06:35:08.229Z,97925.92
2019-05-23T06:40:11.796Z,97920.35
2019-05-23T06:45:15.748Z,97928.83
2019-05-23T06:50:20.089Z,97932.80
2019-05-23T06:55:23.437Z,97927.94
2019-05-23T07:00:27.472Z,97931.72
2019-05-23T07:05:34.237Z,97925.91
2019-05-23T07:10:38.641Z,97924.72
2019-05-23T07:15:42.333Z,97927.96
2019-05-23T07:20:45.959Z,97920.91
2019-05-23T07:25:49.426Z,97919.72
2019-05-23T07:30:52.960Z,97923.22
2019-05-23T07:35:56.688Z,97922.86
2019-05-23T07:41:01.557Z,97922.40
2019-05-23T07:46:05.263Z,97913.41
2019-05-23T07:51:08.613Z,97916.03
2019-05-23T07:56:13.972Z,97906.63
2019-05-23T08:01:19.066Z,97902.12
2019-05-23T08:06:22.387Z,97906.28
2019-05-23T08:11:26.773Z,97901.05
2019-05-23T08:16:30.256Z,97903.10
2019-05-23T08:21:34.336Z,97894.91
2019-05-23T08:26:39.219Z,97893.11
2019-05-23T08:31:42.543Z,97890.44
2019-05-23T08:36:46.320Z,97899.86
2019-05-23T08:41:50.081Z,97893.20
2019-05-23T08:46:54.798Z,97896.00
2019-05-23T08:51:59.411Z,97895.84
2019-05-23T08:57:04.440Z,97892.13
2019-05-23T09:02:09.601Z,97887.98
2019-05-23T09:07:13.276Z,97885.47
2019-05-23T09:12:17.042Z,97877.59
2019-05-23T09:17:20.558Z,97876.01
2019-05-23T09:22:23.951Z,97878.12
2019-05-23T09:27:27.765Z,97873.70
2019-05-23T09:32:31.285Z,97876.02
2019-05-23T09:37:35.488Z,97869.33
2019-05-23T09:42:38.915Z,97865.41
2019-05-23T09:47:42.378Z,97866.79
2019-05-23T09:52:45.879Z,97856.79
2019-05-23T09:57:49.284Z,97854.72
2019-05-23T10:02:52.911Z,97848.19
2019-05-23T10:07:56.897Z,97855.34
2019-05-23T10:13:00.314Z,97854.53
2019-05-23T10:18:03.772Z,97852.23
2019-05-23T10:23:07.168Z,97857.22
2019-05-23T10:28:10.594Z,97847.93
2019-05-23T10:33:14.952Z,97841.44
2019-05-23T10:38:18.470Z,97840.77
2019-05-23T10:43:21.966Z,97827.45
2019-05-23T10:48:26.079Z,97818.95
2019-05-23T10:53:29.503Z,97811.47
2019-05-23T10:58:35.987Z,97818.44
2019-05-23T11:03:39.579Z,97807.95
2019-05-23T11:08:42.900Z,97802.83
2019-05-23T11:13:46.811Z,97807.98
2019-05-23T11:18:50.388Z,97807.77
2019-05-23T11:23:55.262Z,97794.64
2019-05-23T11:28:58.763Z,97777.34
2019-05-23T11:34:02.174Z,97778.19
2019-05-23T11:39:08.200Z,97790.76
2019-05-23T11:44:11.645Z,97784.59
2019-05-23T11:49:15.165Z,97777.05
2019-05-23T11:54:18.791Z,97780.03
2019-05-23T11:59:22.140Z,97773.59
2019-05-23T12:04:27.640Z,97766.89
2019-05-23T12:09:32.453Z,97762.05
2019-05-23T12:14:35.980Z,97744.43
2019-05-23T12:19:39.423Z,97748.27
2019-05-23T12:24:42.724Z,97750.92
2019-05-23T12:29:46.297Z,97744.06
2019-05-23T12:35:08.716Z,97734.59
2019-05-23T12:39:55.632Z,97735.55
2019-05-23T12:44:59.083Z,97720.68
2019-05-23T12:50:04.073Z,97709.76
2019-05-23T12:55:07.760Z,97709.77
2019-05-23T13:00:20.739Z,97712.39
2019-05-23T13:05:25.009Z,97701.74
2019-05-23T13:10:28.529Z,97698.76
2019-05-23T13:15:32.364Z,97696.39
2019-05-23T13:20:37.649Z,97694.50
2019-05-23T13:25:41.318Z,97694.06
2019-05-23T13:30:44.740Z,97691.14
2019-05-23T13:35:48.252Z,97695.10
2019-05-23T13:40:51.630Z,97688.64
2019-05-23T13:45:55.128Z,97689.81
2019-05-23T13:50:59.052Z,97679.64
2019-05-23T13:56:02.753Z,97677.31
2019-05-23T14:01:09.576Z,97674.74
2019-05-23T14:06:11.435Z,97676.09
2019-05-23T14:11:14.980Z,97671.26
2019-05-23T14:16:18.367Z,97673.23
2019-05-23T14:21:21.769Z,97673.56
2019-05-23T14:26:26.127Z,97669.89
2019-05-23T14:31:31.135Z,97666.49
2019-05-23T14:36:48.223Z,97658.84
2019-05-23T14:41:55.999Z,97651.44
2019-05-23T14:47:16.075Z,97644.78
2019-05-23T14:52:30.096Z,97640.39
2019-05-23T14:57:33.534Z,97636.41
2019-05-23T15:02:37.244Z,97629.66
2019-05-23T15:07:40.844Z,97639.34
2019-05-23T15:12:44.207Z,97632.50
2019-05-23T15:17:47.659Z,97635.22
2019-05-23T15:22:51.569Z,97629.17
2019-05-23T15:27:55.129Z,97633.20
2019-05-23T15:32:58.672Z,97628.63
2019-05-23T15:38:02.078Z,97630.43
2019-05-23T15:43:09.514Z,97625.23
2019-05-23T15:48:10.697Z,97620.40
2019-05-23T15:53:28.077Z,97605.44
2019-05-23T15:58:35.997Z,97608.36
2019-05-23T16:03:43.915Z,97598.17
2019-05-23T16:08:47.271Z,97600.63
2019-05-23T16:13:50.763Z,97601.56
2019-05-23T16:18:54.113Z,97596.98
2019-05-23T16:24:00.116Z,97599.01
2019-05-23T16:29:04.091Z,97599.34
2019-05-23T16:34:07.635Z,97596.50
2019-05-23T16:39:11.072Z,97599.92
2019-05-23T16:44:14.409Z,97602.77
2019-05-23T16:49:17.941Z,97604.73
2019-05-23T16:54:22.983Z,97588.25
2019-05-23T16:59:28.146Z,97593.80
2019-05-23T17:05:06.204Z,97593.47
2019-05-23T17:10:08.170Z,97590.16
2019-05-23T17:15:23.064Z,97590.63
2019-05-23T17:20:44.570Z,97590.35
2019-05-23T17:25:49.699Z,97591.20
2019-05-23T17:30:54.717Z,97590.21
2019-05-23T17:35:58.054Z,97595.09
2019-05-23T17:41:01.504Z,97587.47
2019-05-23T17:46:04.939Z,97578.53
2019-05-23T17:51:08.288Z,97583.78
2019-05-23T17:56:11.961Z,97585.80
2019-05-23T18:01:16.181Z,97587.51
2019-05-23T18:06:20.032Z,97581.14
2019-05-23T18:11:23.388Z,97582.05
2019-05-23T18:16:26.925Z,97587.34
2019-05-23T18:21:30.400Z,97587.38
2019-05-23T18:26:34.418Z,97587.55
2019-05-23T18:31:39.541Z,97586.83
2019-05-23T18:36:44.188Z,97595.50
2019-05-23T18:41:47.646Z,97593.94
2019-05-23T18:46:52.884Z,97594.78
2019-05-23T18:51:56.523Z,97594.50
2019-05-23T18:56:59.974Z,97606.14
2019-05-23T19:02:05.579Z,97609.16
2019-05-23T19:07:09.675Z,97621.96
2019-05-23T19:12:13.426Z,97616.83
2019-05-23T19:17:17.336Z,97621.25
2019-05-23T19:22:21.562Z,97631.66
2019-05-23T19:27:25.538Z,97632.71
2019-05-23T19:32:30.138Z,97629.51
2019-05-23T19:37:33.816Z,97643.23
2019-05-23T19:42:37.906Z,97637.31
2019-05-23T19:47:41.565Z,97640.52
2019-05-23T19:52:45.105Z,97633.02
2019-05-23T19:57:49.419Z,97637.73
2019-05-23T20:02:57.769Z,97634.44
2019-05-23T20:08:01.452Z,97636.26
2019-05-23T20:13:05.480Z,97630.52
2019-05-23T20:18:10.073Z,97625.23
2019-05-23T20:23:15.954Z,97637.24
2019-05-23T20:28:19.235Z,97638.41
2019-05-23T20:33:22.573Z,97641.72
2019-05-23T20:38:27.393Z,97639.75
2019-05-23T20:43:31.953Z,97643.77
2019-05-23T20:48:36.741Z,97634.94
2019-05-23T20:53:40.487Z,97629.30
2019-05-23T20:58:43.922Z,97623.75
2019-05-23T21:03:47.462Z,97630.05
2019-05-23T21:08:50.890Z,97631.92
2019-05-23T21:13:54.230Z,97625.92
2019-05-23T21:18:57.712Z,97618.84
2019-05-23T21:24:01.538Z,97622.66
2019-05-23T21:29:05.204Z,97627.45
2019-05-23T21:34:08.704Z,97625.61
2019-05-23T21:39:14.074Z,97626.88
2019-05-23T21:44:17.575Z,97630.55
2019-05-23T21:49:20.973Z,97628.65
2019-05-23T21:54:24.410Z,97626.60
2019-05-23T21:59:27.810Z,97630.74
2019-05-23T22:04:39.030Z,97637.02
2019-05-23T22:09:42.405Z,97641.29
2019-05-23T22:14:47.070Z,97641.97
2019-05-23T22:19:51.609Z,97642.09
2019-05-23T22:24:56.015Z,97640.70
2019-05-23T22:29:59.674Z,97644.77
2019-05-23T22:35:05.088Z,97637.05
2019-05-23T22:40:09.040Z,97634.14
2019-05-23T22:45:15.647Z,97644.41
2019-05-23T22:50:19.270Z,97640.55
2019-05-23T22:55:22.879Z,97637.84
2019-05-23T23:00:30.875Z,97638.47
2019-05-23T23:05:34.246Z,97639.45
2019-05-23T23:10:37.671Z,97635.27
2019-05-23T23:15:41.127Z,97636.42
2019-05-23T23:20:45.942Z,97635.92
2019-05-23T23:25:49.691Z,97634.14
2019-05-23T23:30:53.236Z,97628.98
2019-05-23T23:35:56.650Z,97626.92
2019-05-23T23:40:59.961Z,97622.06
2019-05-23T23:46:21.181Z,97619.27
2019-05-23T23:51:42.380Z,97617.09
2019-05-23T23:57:04.251Z,97618.25
